createdAt,value
2023-09-15T00:00:39.707Z,12.42
2023-09-15T00:05:42.501Z,12.38
2023-09-15T00:10:47.423Z,12.23
2023-09-15T00:15:52.932Z,12.12
2023-09-15T00:20:55.858Z,12.25
2023-09-15T00:26:05.058Z,12.26
2023-09-15T00:31:10.239Z,12.19
2023-09-15T00:36:13.017Z,12.25
2023-09-15T00:41:15.992Z,12.21
2023-09-15T00:46:20.680Z,12.05
2023-09-15T00:51:23.966Z,11.87
2023-09-15T00:56:26.955Z,11.92
2023-09-15T01:01:32.634Z,11.79
2023-09-15T01:06:35.912Z,11.72
2023-09-15T01:11:40.878Z,11.67
2023-09-15T01:16:48.900Z,11.74
2023-09-15T01:22:05.712Z,11.72
2023-09-15T01:27:15.710Z,11.67
2023-09-15T01:32:21.368Z,11.60
2023-09-15T01:37:25.066Z,11.58
2023-09-15T01:42:27.968Z,11.45
2023-09-15T01:47:33.224Z,11.57
2023-09-15T01:52:36.218Z,11.49
2023-09-15T01:57:38.991Z,11.57
2023-09-15T02:02:43.224Z,11.36
2023-09-15T02:07:46.042Z,11.35
2023-09-15T02:12:48.828Z,11.40
2023-09-15T02:17:53.633Z,11.46
2023-09-15T02:22:58.256Z,11.50
2023-09-15T02:28:01.050Z,11.32
2023-09-15T02:33:05.551Z,11.22
2023-09-15T02:38:08.380Z,11.37
2023-09-15T02:43:11.466Z,11.27
2023-09-15T02:48:15.754Z,11.19
2023-09-15T02:53:19.016Z,11.28
2023-09-15T02:58:23.402Z,11.35
2023-09-15T03:03:27.841Z,11.35
2023-09-15T03:08:30.991Z,11.20
2023-09-15T03:13:34.068Z,11.23
2023-09-15T03:18:39.248Z,11.17
2023-09-15T03:23:42.712Z,11.13
2023-09-15T03:28:45.878Z,11.11
2023-09-15T03:33:50.502Z,11.13
2023-09-15T03:38:55.147Z,11.03
2023-09-15T03:44:00.509Z,11.17
2023-09-15T03:49:05.726Z,11.07
2023-09-15T03:54:09.356Z,11.09
2023-09-15T03:59:12.834Z,10.99
2023-09-15T04:04:17.200Z,11.08
2023-09-15T04:09:20.520Z,11.00
2023-09-15T04:14:23.300Z,11.12
2023-09-15T04:19:27.435Z,10.91
2023-09-15T04:24:30.448Z,10.96
2023-09-15T04:29:33.255Z,10.91
2023-09-15T04:34:37.790Z,10.93
2023-09-15T04:39:40.739Z,10.75
2023-09-15T04:44:44.566Z,10.87
2023-09-15T04:49:49.007Z,10.87
2023-09-15T04:54:52.260Z,10.82
2023-09-15T04:59:55.380Z,10.80
2023-09-15T05:04:59.700Z,10.77
2023-09-15T05:10:03.072Z,10.81
2023-09-15T05:15:09.245Z,10.75
2023-09-15T05:20:15.684Z,10.81
2023-09-15T05:25:18.866Z,10.82
2023-09-15T05:30:21.872Z,10.83
2023-09-15T05:35:27.093Z,10.96
2023-09-15T05:40:29.977Z,11.07
2023-09-15T05:45:33.643Z,11.02
2023-09-15T05:50:37.733Z,11.15
2023-09-15T05:55:40.484Z,11.24
2023-09-15T06:00:43.725Z,11.31
2023-09-15T06:05:47.904Z,11.30
2023-09-15T06:10:50.663Z,11.37
2023-09-15T06:15:53.765Z,11.55
2023-09-15T06:20:57.899Z,11.71
2023-09-15T06:26:00.733Z,11.81
2023-09-15T06:31:04.116Z,11.89
2023-09-15T06:36:08.496Z,12.04
2023-09-15T06:41:11.286Z,12.20
2023-09-15T06:46:14.413Z,12.31
2023-09-15T06:51:18.583Z,12.45
2023-09-15T06:56:21.374Z,12.49
2023-09-15T07:01:24.219Z,12.61
2023-09-15T07:06:28.432Z,12.70
2023-09-15T07:11:31.266Z,12.77
2023-09-15T07:16:34.093Z,13.03
2023-09-15T07:21:41.849Z,13.02
2023-09-15T07:26:44.677Z,13.19
2023-09-15T07:31:47.729Z,13.32
2023-09-15T07:36:52.221Z,13.42
2023-09-15T07:41:54.982Z,13.74
2023-09-15T07:46:57.809Z,13.76
2023-09-15T07:52:02.169Z,13.81
2023-09-15T07:57:05.647Z,14.02
2023-09-15T08:02:08.854Z,14.08
2023-09-15T08:07:13.013Z,14.37
2023-09-15T08:12:17.744Z,14.48
2023-09-15T08:17:33.097Z,14.81
2023-09-15T08:22:39.665Z,14.83
2023-09-15T08:27:45.346Z,14.75
2023-09-15T08:32:48.160Z,14.86
2023-09-15T08:37:52.332Z,15.25
2023-09-15T08:42:55.194Z,15.41
2023-09-15T08:48:00.763Z,15.43
2023-09-15T08:53:05.645Z,15.73
2023-09-15T08:58:09.249Z,16.09
2023-09-15T09:03:14.111Z,16.16
2023-09-15T09:08:18.683Z,16.32
2023-09-15T09:13:33.719Z,16.45
2023-09-15T09:18:56.168Z,16.44
2023-09-15T09:24:00.763Z,16.81
2023-09-15T09:29:03.618Z,17.08
2023-09-15T09:34:06.885Z,17.10
2023-09-15T09:39:11.095Z,17.14
2023-09-15T09:44:14.531Z,17.58
2023-09-15T09:49:17.308Z,17.53
2023-09-15T09:54:22.188Z,17.48
2023-09-15T09:59:24.977Z,17.49
2023-09-15T10:04:27.819Z,17.74
2023-09-15T10:09:32.387Z,17.91
2023-09-15T10:14:36.328Z,18.00
2023-09-15T10:19:40.988Z,18.41
2023-09-15T10:24:48.588Z,18.62
2023-09-15T10:29:53.237Z,18.80
2023-09-15T10:34:55.998Z,18.68
2023-09-15T10:40:01.471Z,19.04
2023-09-15T10:45:12.311Z,19.20
2023-09-15T10:50:16.367Z,19.29
2023-09-15T10:55:20.519Z,19.27
2023-09-15T11:00:23.416Z,19.37
2023-09-15T11:05:28.007Z,19.30
2023-09-15T11:10:33.236Z,19.56
2023-09-15T11:15:37.013Z,20.14
2023-09-15T11:20:40.092Z,19.94
2023-09-15T11:25:44.202Z,20.39
2023-09-15T11:30:47.642Z,20.22
2023-09-15T11:35:50.791Z,20.27
2023-09-15T11:40:55.193Z,20.70
2023-09-15T11:45:58.151Z,21.05
2023-09-15T11:51:00.960Z,20.63
2023-09-15T11:56:05.342Z,20.99
2023-09-15T12:01:08.161Z,21.30
2023-09-15T12:06:11.331Z,21.30
2023-09-15T12:11:15.973Z,21.24
2023-09-15T12:16:21.180Z,21.71
2023-09-15T12:21:26.285Z,21.84
2023-09-15T12:26:30.567Z,21.92
2023-09-15T12:31:40.275Z,21.45
2023-09-15T12:36:43.173Z,21.97
2023-09-15T12:41:52.192Z,21.93
2023-09-15T12:46:58.423Z,22.36
2023-09-15T12:52:01.204Z,22.07
2023-09-15T12:57:05.878Z,22.02
2023-09-15T13:02:08.998Z,22.35
2023-09-15T13:07:12.294Z,22.35
2023-09-15T13:12:16.448Z,22.38
2023-09-15T13:17:19.235Z,22.27
2023-09-15T13:22:23.499Z,21.87
2023-09-15T13:27:29.542Z,22.49
2023-09-15T13:32:32.494Z,22.48
2023-09-15T13:37:37.645Z,22.39
2023-09-15T13:42:41.816Z,22.49
2023-09-15T13:47:44.630Z,22.49
2023-09-15T13:52:49.630Z,22.59
2023-09-15T13:57:54.931Z,22.46
2023-09-15T14:02:57.886Z,22.14
2023-09-15T14:08:00.659Z,22.71
2023-09-15T14:13:05.180Z,22.64
2023-09-15T14:18:08.205Z,22.55
2023-09-15T14:23:11.084Z,22.64
2023-09-15T14:28:15.257Z,22.42
2023-09-15T14:33:18.063Z,22.49
2023-09-15T14:38:20.863Z,22.69
2023-09-15T14:43:25.017Z,22.79
2023-09-15T14:48:27.877Z,22.79
2023-09-15T14:53:30.696Z,22.78
2023-09-15T14:58:34.817Z,22.82
2023-09-15T15:03:37.651Z,22.87
2023-09-15T15:08:40.956Z,22.88
2023-09-15T15:13:45.102Z,22.75
2023-09-15T15:18:48.345Z,22.73
2023-09-15T15:23:51.486Z,22.67
2023-09-15T15:28:56.621Z,22.69
2023-09-15T15:33:59.415Z,22.72
2023-09-15T15:39:05.636Z,22.45
2023-09-15T15:44:10.610Z,22.60
2023-09-15T15:49:13.377Z,22.60
2023-09-15T15:54:16.297Z,22.66
2023-09-15T15:59:20.400Z,22.52
2023-09-15T16:04:23.152Z,22.46
2023-09-15T16:09:26.065Z,22.38
2023-09-15T16:14:30.192Z,22.29
2023-09-15T16:19:32.961Z,22.20
2023-09-15T16:24:35.800Z,22.12
2023-09-15T16:29:39.939Z,21.92
2023-09-15T16:34:43.786Z,21.87
2023-09-15T16:39:46.611Z,21.72
2023-09-15T16:44:50.729Z,21.65
2023-09-15T16:49:53.496Z,21.51
2023-09-15T16:54:56.361Z,21.45
2023-09-15T17:00:01.087Z,21.25
2023-09-15T17:05:03.859Z,21.21
2023-09-15T17:10:09.337Z,21.16
2023-09-15T17:15:14.307Z,21.07
2023-09-15T17:20:17.301Z,20.91
2023-09-15T17:25:20.215Z,20.79
2023-09-15T17:30:24.894Z,20.63
2023-09-15T17:35:28.582Z,20.48
2023-09-15T17:40:32.415Z,20.42
2023-09-15T17:45:36.585Z,20.28
2023-09-15T17:50:39.526Z,20.10
2023-09-15T17:55:42.327Z,19.95
2023-09-15T18:00:46.464Z,19.81
2023-09-15T18:05:49.360Z,19.76
2023-09-15T18:10:52.136Z,19.61
2023-09-15T18:15:56.419Z,19.56
2023-09-15T18:20:59.341Z,19.54
2023-09-15T18:26:02.123Z,19.40
2023-09-15T18:31:06.257Z,19.35
2023-09-15T18:36:09.268Z,19.28
2023-09-15T18:41:12.797Z,19.14
2023-09-15T18:46:17.053Z,18.97
2023-09-15T18:51:20.453Z,18.96
2023-09-15T18:56:23.223Z,18.97
2023-09-15T19:01:27.690Z,18.87
2023-09-15T19:06:31.184Z,18.63
2023-09-15T19:11:34.028Z,18.60
2023-09-15T19:16:38.223Z,18.53
2023-09-15T19:21:41.273Z,18.42
2023-09-15T19:26:44.167Z,18.27
2023-09-15T19:31:48.272Z,18.12
2023-09-15T19:36:51.110Z,18.16
2023-09-15T19:41:53.925Z,18.03
2023-09-15T19:46:58.665Z,18.04
2023-09-15T19:52:01.492Z,17.94
2023-09-15T19:57:04.666Z,17.77
2023-09-15T20:02:08.887Z,17.70
2023-09-15T20:07:12.268Z,17.72
2023-09-15T20:12:15.066Z,17.68
2023-09-15T20:17:19.213Z,17.60
2023-09-15T20:22:23.095Z,17.53
2023-09-15T20:27:26.835Z,17.42
2023-09-15T20:32:31.212Z,17.28
2023-09-15T20:37:34.133Z,17.17
2023-09-15T20:42:37.234Z,17.03
2023-09-15T20:47:41.432Z,17.05
2023-09-15T20:52:44.203Z,17.09
2023-09-15T20:57:47.059Z,17.15
2023-09-15T21:02:51.351Z,16.96
2023-09-15T21:07:54.972Z,16.80
2023-09-15T21:12:58.506Z,16.72
2023-09-15T21:18:03.342Z,16.73
2023-09-15T21:23:06.142Z,16.69
2023-09-15T21:28:08.948Z,16.60
2023-09-15T21:33:14.324Z,16.57
2023-09-15T21:38:18.000Z,16.53
2023-09-15T21:43:21.409Z,16.53
2023-09-15T21:48:25.754Z,16.38
2023-09-15T21:53:28.641Z,16.44
2023-09-15T21:58:31.484Z,16.42
2023-09-15T22:03:35.768Z,16.38
2023-09-15T22:08:38.727Z,16.27
2023-09-15T22:13:44.066Z,16.31
2023-09-15T22:18:48.780Z,16.25
2023-09-15T22:23:52.763Z,16.18
2023-09-15T22:28:55.732Z,16.16
2023-09-15T22:33:59.881Z,16.14
2023-09-15T22:39:04.767Z,16.09
2023-09-15T22:44:07.755Z,16.02
2023-09-15T22:49:13.405Z,15.91
2023-09-15T22:54:16.254Z,15.82
2023-09-15T22:59:19.058Z,15.75
2023-09-15T23:04:23.189Z,15.80
2023-09-15T23:09:25.967Z,15.75
2023-09-15T23:14:28.901Z,15.82
2023-09-15T23:19:33.066Z,15.82
2023-09-15T23:24:35.820Z,15.79
2023-09-15T23:29:38.604Z,15.71
2023-09-15T23:34:43.496Z,15.59
2023-09-15T23:39:47.360Z,15.55
2023-09-15T23:44:50.162Z,15.61
2023-09-15T23:49:54.568Z,15.57
2023-09-15T23:54:58.011Z,15.59
